createdAt,value
2018-12-01T00:00:47.769Z,77.24
2018-12-01T00:01:47.780Z,77.14
2018-12-01T00:02:47.766Z,77.07
2018-12-01T00:03:47.730Z,77.34
2018-12-01T00:04:47.720Z,77.34
2018-12-01T00:05:47.737Z,77.03
2018-12-01T00:06:47.718Z,77.14
2018-12-01T00:07:47.727Z,76.93
2018-12-01T00:08:47.678Z,77.03
2018-12-01T00:09:47.679Z,77.24
2018-12-01T00:10:47.688Z,77.45
2018-12-01T00:11:47.665Z,77.45
2018-12-01T00:12:47.659Z,77.48
2018-12-01T00:13:47.621Z,77.34
2018-12-01T00:14:47.611Z,77.45
2018-12-01T00:15:47.601Z,77.86
2018-12-01T00:16:47.617Z,77.65
2018-12-01T00:17:47.635Z,78.41
2018-12-01T00:18:47.599Z,78.30
2018-12-01T00:19:47.577Z,78.41
2018-12-01T00:20:47.567Z,78.55
2018-12-01T00:21:47.579Z,78.44
2018-12-01T00:22:47.567Z,78.86
2018-12-01T00:23:49.235Z,79.16
2018-12-01T00:24:47.540Z,78.96
2018-12-01T00:25:47.503Z,79.72
2018-12-01T00:26:47.489Z,80.23
2018-12-01T00:27:47.526Z,79.96
2018-12-01T00:28:47.463Z,80.47
2018-12-01T00:29:47.448Z,80.37
2018-12-01T00:30:47.458Z,80.37
2018-12-01T00:31:47.436Z,80.58
2018-12-01T00:32:47.448Z,80.47
2018-12-01T00:33:47.409Z,80.79
2018-12-01T00:34:47.426Z,80.58
2018-12-01T00:35:47.388Z,80.68
2018-12-01T00:36:47.374Z,80.58
2018-12-01T00:37:47.423Z,81.09
2018-12-01T00:38:47.369Z,81.09
2018-12-01T00:39:47.339Z,80.47
2018-12-01T00:40:47.380Z,80.37
2018-12-01T00:41:47.318Z,80.99
2018-12-01T00:42:47.397Z,80.93
2018-12-01T00:43:47.323Z,80.82
2018-12-01T00:44:47.291Z,81.44
2018-12-01T00:45:47.288Z,81.65
2018-12-01T00:46:47.270Z,81.58
2018-12-01T00:47:47.258Z,81.65
2018-12-01T00:48:47.279Z,82.16
2018-12-01T00:49:47.238Z,82.26
2018-12-01T00:50:47.226Z,82.40
2018-12-01T00:51:47.266Z,82.82
2018-12-01T00:52:47.201Z,82.20
2018-12-01T00:53:47.221Z,82.40
2018-12-01T00:54:47.177Z,82.82
2018-12-01T00:55:47.184Z,82.82
2018-12-01T00:56:47.165Z,82.61
2018-12-01T00:57:47.156Z,82.71
2018-12-01T00:58:47.194Z,82.71
2018-12-01T07:00:46.865Z,83.94
2018-12-01T07:01:45.877Z,83.73
2018-12-01T07:02:45.988Z,83.80
2018-12-01T07:03:45.935Z,83.94
2018-12-01T07:04:45.888Z,84.21
2018-12-01T07:05:45.837Z,83.59
2018-12-01T07:06:46.034Z,83.39
2018-12-01T07:07:47.009Z,83.18
2018-12-01T07:08:46.098Z,83.80
2018-12-01T07:09:46.275Z,83.59
2018-12-01T07:10:45.927Z,83.49
2018-12-01T07:11:46.214Z,83.53
2018-12-01T07:12:46.579Z,84.15
2018-12-01T07:13:46.897Z,84.15
2018-12-01T07:14:45.938Z,83.90
2018-12-01T07:15:46.958Z,83.94
2018-12-01T07:16:45.893Z,83.94
2018-12-01T07:17:46.058Z,84.05
2018-12-01T07:18:45.755Z,84.21
2018-12-01T07:19:45.690Z,84.21
2018-12-01T07:20:52.913Z,83.90
2018-12-01T07:21:45.702Z,84.11
2018-12-01T07:22:45.699Z,83.94
2018-12-01T07:23:45.651Z,83.94
2018-12-01T07:24:45.721Z,83.49
2018-12-01T07:25:45.639Z,83.94
2018-12-01T07:26:45.655Z,84.05
2018-12-01T07:27:45.675Z,84.05
2018-12-01T07:28:45.599Z,84.97
2018-12-01T07:29:45.587Z,85.08
2018-12-01T07:30:45.716Z,84.87
2018-12-01T07:31:45.665Z,84.87
2018-12-01T07:32:45.605Z,85.28
2018-12-01T07:33:45.581Z,84.25
2018-12-01T07:34:45.562Z,84.56
2018-12-01T07:35:45.529Z,84.25
2018-12-01T07:36:45.514Z,84.25
2018-12-01T07:37:45.538Z,85.18
2018-12-01T07:38:45.498Z,84.52
2018-12-01T07:39:45.484Z,85.28
2018-12-01T07:40:45.477Z,84.83
2018-12-01T07:41:45.464Z,84.87
2018-12-01T07:42:45.615Z,84.45
2018-12-01T07:43:45.461Z,84.21
2018-12-01T07:44:45.432Z,83.90
2018-12-01T07:45:45.426Z,83.70
2018-12-01T07:46:45.412Z,84.00
2018-12-01T07:47:45.497Z,84.21
2018-12-01T07:48:45.412Z,84.42
2018-12-01T07:49:45.380Z,84.42
2018-12-01T07:50:45.373Z,84.21
2018-12-01T07:51:45.362Z,84.21
2018-12-01T07:52:45.347Z,84.59
2018-12-01T07:53:45.356Z,84.17
2018-12-01T07:54:45.349Z,84.59
2018-12-01T07:55:45.327Z,83.86
2018-12-01T07:56:45.321Z,83.86
2018-12-01T07:57:45.304Z,83.97
2018-12-01T07:58:45.308Z,84.17
2018-12-01T07:59:45.280Z,84.17
2018-12-01T08:00:45.267Z,84.17
2018-12-01T08:01:45.261Z,84.17
2018-12-01T08:02:45.395Z,84.03
2018-12-01T08:03:45.252Z,83.83
2018-12-01T08:04:45.223Z,83.83
2018-12-01T08:05:45.216Z,83.62
2018-12-01T08:06:45.203Z,83.17
2018-12-01T08:07:45.193Z,83.31
2018-12-01T08:08:45.219Z,82.75
2018-12-01T08:09:45.169Z,82.75
2018-12-01T08:10:45.168Z,82.75
2018-12-01T08:11:45.151Z,82.86
2018-12-01T08:12:45.140Z,82.55
2018-12-01T08:13:45.150Z,82.24
2018-12-01T08:14:45.116Z,83.27
2018-12-01T08:15:45.105Z,82.71
2018-12-01T08:16:45.104Z,82.55
2018-12-01T08:17:45.095Z,82.61
2018-12-01T08:18:45.117Z,82.45
2018-12-01T08:19:45.068Z,81.79
2018-12-01T08:20:45.053Z,81.93
2018-12-01T08:21:45.044Z,81.93
2018-12-01T08:22:45.035Z,81.79
2018-12-01T08:23:45.061Z,81.79
2018-12-01T08:24:45.011Z,81.89
2018-12-01T08:25:45.006Z,81.99
2018-12-01T08:26:44.988Z,81.89
2018-12-01T08:27:44.979Z,81.68
2018-12-01T08:28:44.987Z,81.68
2018-12-01T08:29:44.989Z,81.27
2018-12-01T08:30:44.962Z,81.37
2018-12-01T08:31:44.951Z,81.27
2018-12-01T08:32:44.952Z,81.48
2018-12-01T08:33:44.974Z,80.93
2018-12-01T08:34:44.905Z,80.93
2018-12-01T08:35:44.897Z,80.51
2018-12-01T08:36:44.887Z,80.72
2018-12-01T08:37:44.880Z,80.51
2018-12-01T08:38:44.898Z,80.51
2018-12-01T08:39:44.866Z,80.00
2018-12-01T08:40:44.842Z,79.90
2018-12-01T08:41:44.837Z,80.51
2018-12-01T08:42:44.868Z,80.27
2018-12-01T08:43:45.218Z,79.96
2018-12-01T08:44:44.805Z,80.06
2018-12-01T08:45:44.791Z,79.65
2018-12-01T08:46:44.850Z,79.75
2018-12-01T08:47:44.778Z,80.06
2018-12-01T08:48:44.799Z,79.75
2018-12-01T08:49:44.751Z,79.75
2018-12-01T08:50:44.734Z,79.96
2018-12-01T08:51:44.722Z,79.93
2018-12-01T08:52:44.714Z,79.55
2018-12-01T08:53:44.722Z,79.30
2018-12-01T08:54:44.693Z,79.30
2018-12-01T08:55:44.681Z,79.41
2018-12-01T08:56:44.668Z,79.72
2018-12-01T08:57:44.659Z,79.20
2018-12-01T08:58:45.014Z,79.00
2018-12-01T08:59:44.645Z,79.30
2018-12-01T09:00:44.662Z,79.00
2018-12-01T09:01:44.618Z,79.16
2018-12-01T09:02:44.613Z,78.44
2018-12-01T09:03:44.621Z,78.86
2018-12-01T09:04:44.580Z,78.75
2018-12-01T09:05:44.591Z,79.06
2018-12-01T09:06:44.560Z,78.75
2018-12-01T09:07:44.559Z,78.24
2018-12-01T09:08:44.539Z,78.30
2018-12-01T09:09:44.566Z,78.20
2018-12-01T09:10:44.516Z,78.30
2018-12-01T09:11:44.506Z,78.51
2018-12-01T09:12:44.510Z,77.86
2018-12-01T09:13:44.496Z,77.45
2018-12-01T09:14:44.491Z,77.48
2018-12-01T09:15:44.462Z,77.24
2018-12-01T09:16:44.454Z,76.97
2018-12-01T09:17:44.455Z,76.56
2018-12-01T09:18:44.432Z,77.03
2018-12-01T09:19:44.439Z,76.93
2018-12-01T09:20:44.421Z,76.83
2018-12-01T09:21:44.396Z,76.62
2018-12-01T09:22:44.387Z,76.73
2018-12-01T09:23:44.375Z,76.62
2018-12-01T09:24:44.413Z,76.62
2018-12-01T09:25:44.363Z,76.73
2018-12-01T09:26:44.345Z,76.62
2018-12-01T09:27:44.332Z,76.73
2018-12-01T09:28:44.324Z,77.24
2018-12-01T09:29:44.340Z,77.03
2018-12-01T09:30:44.301Z,77.03
2018-12-01T09:31:44.302Z,76.73
2018-12-01T09:32:44.279Z,76.83
2018-12-01T09:33:44.270Z,76.52
2018-12-01T09:34:44.281Z,76.42
2018-12-01T09:35:44.245Z,76.28
2018-12-01T09:36:44.251Z,76.38
2018-12-01T09:37:44.235Z,76.28
2018-12-01T09:38:44.214Z,76.28
2018-12-01T09:39:44.217Z,76.18
2018-12-01T09:40:44.205Z,76.04
2018-12-01T09:41:44.178Z,75.32
2018-12-01T09:42:44.171Z,75.21
2018-12-01T09:43:44.157Z,74.91
2018-12-01T09:44:44.165Z,75.32
2018-12-01T09:45:44.145Z,75.12
2018-12-01T09:46:44.125Z,74.91
2018-12-01T09:47:44.112Z,74.91
2018-12-01T09:48:44.107Z,74.98
2018-12-01T09:49:44.113Z,74.77
2018-12-01T09:50:44.078Z,74.05
2018-12-01T09:51:44.069Z,74.46
2018-12-01T09:52:44.060Z,74.57
2018-12-01T09:53:44.075Z,74.63
2018-12-01T09:54:44.053Z,74.63
2018-12-01T09:55:44.026Z,73.71
2018-12-01T09:56:44.045Z,73.40
2018-12-01T09:57:44.009Z,72.99
2018-12-01T09:58:43.993Z,72.96
2018-12-01T09:59:44.011Z,72.85
2018-12-01T10:00:43.980Z,72.96
2018-12-01T10:01:43.963Z,72.82
2018-12-01T10:02:43.969Z,72.38
2018-12-01T10:03:43.954Z,72.07
2018-12-01T10:04:43.944Z,71.45
2018-12-01T10:05:43.920Z,71.32
2018-12-01T10:06:43.907Z,70.77
2018-12-01T10:07:43.907Z,69.54
2018-12-01T10:08:43.893Z,69.10
2018-12-01T10:09:43.892Z,69.41
2018-12-01T10:10:43.880Z,69.20
2018-12-01T10:11:43.851Z,68.76
2018-12-01T10:12:43.849Z,68.87
2018-12-01T10:13:43.829Z,68.55
2018-12-01T10:14:43.833Z,68.25
2018-12-01T10:15:43.803Z,69.61
2018-12-01T10:16:43.801Z,69.44
2018-12-01T10:17:43.799Z,69.31
2018-12-01T10:18:43.774Z,69.31
2018-12-01T10:19:43.775Z,69.17
2018-12-01T10:20:43.746Z,68.66
2018-12-01T10:21:43.732Z,68.15
2018-12-01T10:22:43.722Z,67.94
2018-12-01T10:23:43.722Z,68.46
2018-12-01T10:24:43.740Z,68.97
2018-12-01T10:25:43.688Z,68.25
2018-12-01T10:26:43.678Z,68.97
2018-12-01T10:27:43.673Z,68.76
2018-12-01T10:28:43.654Z,68.97
2018-12-01T10:29:43.664Z,68.66
2018-12-01T10:30:43.656Z,68.66
2018-12-01T10:31:43.621Z,68.76
2018-12-01T10:32:43.613Z,69.20
2018-12-01T10:33:43.602Z,69.00
2018-12-01T10:34:43.626Z,69.44
2018-12-01T10:35:43.586Z,69.44
2018-12-01T10:36:43.566Z,69.34
2018-12-01T10:37:43.557Z,69.13
2018-12-01T10:38:43.580Z,69.65
2018-12-01T10:39:43.566Z,69.24
2018-12-01T10:40:43.545Z,69.34
2018-12-01T10:41:43.525Z,69.13
2018-12-01T10:42:43.496Z,69.68
2018-12-01T10:43:43.502Z,70.06
2018-12-01T10:44:43.475Z,70.09
2018-12-01T10:45:43.482Z,70.36
2018-12-01T10:46:43.555Z,70.40
2018-12-01T10:47:43.442Z,70.40
2018-12-01T10:48:43.430Z,69.89
2018-12-01T10:49:43.418Z,70.09
2018-12-01T10:50:43.424Z,70.06
2018-12-01T10:51:43.407Z,69.85
2018-12-01T10:52:43.388Z,69.24
2018-12-01T10:53:43.377Z,69.44
2018-12-01T10:54:43.363Z,69.34
2018-12-01T10:55:43.371Z,68.52
2018-12-01T10:56:43.346Z,68.32
2018-12-01T10:57:43.341Z,69.13
2018-12-01T10:58:43.322Z,68.49
2018-12-01T10:59:43.305Z,68.59
2018-12-01T11:00:43.329Z,67.67
2018-12-01T11:01:43.284Z,67.67
2018-12-01T11:02:43.274Z,67.02
2018-12-01T11:03:43.263Z,66.92
2018-12-01T11:04:43.265Z,67.16
2018-12-01T11:05:43.262Z,67.13
2018-12-01T11:06:43.227Z,66.92
2018-12-01T11:07:43.221Z,66.99
2018-12-01T11:08:43.213Z,66.78
2018-12-01T11:09:43.211Z,66.31
2018-12-01T11:10:43.209Z,66.20
2018-12-01T11:11:43.177Z,66.61
2018-12-01T11:12:43.161Z,66.82
2018-12-01T11:13:43.150Z,67.02
2018-12-01T11:14:43.134Z,66.51
2018-12-01T11:15:43.176Z,66.41
2018-12-01T11:16:43.121Z,66.28
2018-12-01T11:17:43.111Z,66.82
2018-12-01T11:18:43.095Z,66.72
2018-12-01T11:19:43.077Z,66.89
2018-12-01T11:20:43.089Z,66.17
2018-12-01T11:21:43.055Z,66.20
2018-12-01T11:22:43.055Z,66.38
2018-12-01T11:23:43.032Z,66.58
2018-12-01T11:24:43.022Z,65.87
2018-12-01T11:25:43.029Z,65.25
2018-12-01T11:26:42.998Z,65.22
2018-12-01T11:27:42.993Z,64.71
2018-12-01T11:28:42.974Z,64.20
2018-12-01T11:29:42.967Z,63.86
2018-12-01T11:30:42.973Z,63.93
2018-12-01T11:31:42.964Z,62.92
2018-12-01T11:32:42.944Z,62.40
2018-12-01T11:33:42.920Z,62.30
2018-12-01T11:34:42.909Z,62.51
2018-12-01T11:35:42.945Z,62.48
2018-12-01T11:36:42.895Z,62.07
2018-12-01T11:37:42.956Z,62.04
2018-12-01T11:38:42.873Z,61.32
2018-12-01T11:39:42.854Z,60.99
2018-12-01T11:40:42.898Z,60.38
2018-12-01T11:41:42.861Z,60.94
2018-12-01T11:42:42.822Z,60.85
2018-12-01T11:43:42.820Z,61.05
2018-12-01T11:44:42.806Z,60.21
2018-12-01T11:45:42.839Z,60.30
2018-12-01T11:46:42.780Z,61.15
2018-12-01T11:47:42.764Z,60.94
2018-12-01T11:48:42.773Z,60.87
2018-12-01T11:49:42.746Z,60.44
2018-12-01T11:50:42.750Z,60.97
2018-12-01T11:51:42.725Z,61.18
2018-12-01T11:52:42.754Z,61.28
2018-12-01T11:53:42.715Z,61.38
2018-12-01T11:54:42.695Z,61.69
2018-12-01T11:55:42.700Z,61.49
2018-12-01T11:56:42.674Z,61.58
2018-12-01T11:57:42.655Z,61.18
2018-12-01T11:58:42.645Z,61.58
2018-12-01T11:59:42.657Z,61.58
2018-12-01T12:00:42.657Z,62.02
2018-12-01T12:01:42.617Z,60.69
2018-12-01T12:02:42.605Z,61.10
2018-12-01T12:03:42.597Z,60.90
2018-12-01T12:04:42.609Z,60.77
2018-12-01T12:05:42.587Z,60.77
2018-12-01T12:06:42.563Z,60.85
2018-12-01T12:07:42.568Z,60.53
2018-12-01T12:08:42.552Z,59.92
2018-12-01T12:09:42.530Z,59.82
2018-12-01T12:10:42.551Z,60.64
2018-12-01T12:11:42.507Z,60.53
2018-12-01T12:12:42.511Z,60.03
2018-12-01T12:13:42.481Z,60.23
2018-12-01T12:14:42.481Z,59.82
2018-12-01T12:15:42.466Z,59.82
2018-12-01T12:16:42.473Z,59.92
2018-12-01T12:17:42.437Z,60.53
2018-12-01T12:18:42.443Z,59.95
2018-12-01T12:19:42.415Z,60.16
2018-12-01T12:20:42.406Z,59.85
2018-12-01T12:21:42.413Z,60.16
2018-12-01T12:22:42.385Z,60.05
2018-12-01T12:23:42.373Z,60.16
2018-12-01T12:24:42.391Z,60.05
2018-12-01T12:25:42.356Z,60.16
2018-12-01T12:26:42.364Z,59.55
2018-12-01T12:27:42.368Z,59.11
2018-12-01T12:28:42.317Z,58.22
2018-12-01T12:29:42.331Z,58.19
2018-12-01T12:30:42.313Z,57.88
2018-12-01T12:31:42.313Z,58.09
2018-12-01T12:32:42.284Z,57.34
2018-12-01T12:33:42.282Z,57.37
2018-12-01T12:34:42.252Z,56.04
2018-12-01T12:35:42.244Z,57.14
2018-12-01T12:36:42.248Z,57.55
2018-12-01T12:37:42.236Z,56.73
2018-12-01T12:38:42.221Z,56.73
2018-12-01T12:39:42.216Z,56.94
2018-12-01T12:40:42.193Z,56.12
2018-12-01T12:41:42.195Z,56.12
2018-12-01T12:42:42.183Z,56.12
2018-12-01T12:43:42.155Z,56.02
2018-12-01T12:44:42.150Z,56.23
2018-12-01T12:45:42.150Z,56.12
2018-12-01T12:46:42.158Z,56.12
2018-12-01T12:47:42.111Z,55.82
2018-12-01T12:48:42.101Z,55.94
2018-12-01T12:49:42.087Z,56.35
2018-12-01T12:50:42.076Z,56.25
2018-12-01T12:51:42.084Z,56.35
2018-12-01T12:52:42.067Z,55.94
2018-12-01T12:53:42.140Z,56.15
2018-12-01T12:54:42.069Z,56.27
2018-12-01T12:55:42.041Z,56.07
2018-12-01T12:56:42.067Z,55.97
2018-12-01T12:57:42.077Z,56.07
2018-12-01T12:58:42.005Z,56.48
2018-12-01T12:59:41.986Z,56.07
2018-12-01T13:00:41.969Z,57.09
2018-12-01T13:01:42.012Z,57.20
2018-12-01T13:02:42.004Z,57.63
2018-12-01T13:03:41.976Z,57.43
2018-12-01T13:04:41.962Z,57.32
2018-12-01T13:05:41.950Z,57.53
2018-12-01T13:06:41.922Z,57.63
2018-12-01T13:07:41.894Z,57.84
2018-12-01T13:08:41.881Z,57.73
2018-12-01T13:09:41.870Z,57.84
2018-12-01T13:10:41.857Z,57.86
2018-12-01T13:11:41.865Z,58.37
2018-12-01T13:12:41.843Z,58.37
2018-12-01T13:13:41.848Z,57.86
2018-12-01T13:14:41.814Z,58.58
2018-12-01T13:15:41.825Z,57.86
2018-12-01T13:16:41.813Z,58.27
2018-12-01T13:17:41.779Z,57.86
2018-12-01T13:18:41.801Z,58.27
2018-12-01T13:19:41.785Z,58.58
2018-12-01T13:20:41.764Z,58.78
2018-12-01T13:21:41.763Z,58.78
2018-12-01T13:22:41.725Z,58.78
2018-12-01T13:23:41.721Z,58.48
2018-12-01T13:24:41.705Z,58.78
2018-12-01T13:25:41.692Z,59.22
2018-12-01T13:26:41.697Z,59.73
2018-12-01T13:27:41.667Z,59.94
2018-12-01T13:28:41.658Z,59.94
2018-12-01T13:29:41.662Z,60.14
2018-12-01T13:30:41.650Z,59.73
2018-12-01T13:31:41.648Z,59.73
2018-12-01T13:32:41.609Z,59.12
2018-12-01T13:33:41.597Z,59.01
2018-12-01T13:34:41.590Z,59.32
2018-12-01T13:35:41.587Z,58.91
2018-12-01T13:36:41.586Z,59.12
2018-12-01T13:37:41.558Z,59.12
2018-12-01T13:38:41.543Z,59.22
2018-12-01T13:39:41.536Z,59.01
2018-12-01T13:40:41.519Z,59.73
2018-12-01T13:41:41.535Z,60.03
2018-12-01T13:42:41.502Z,59.35
2018-12-01T13:43:41.546Z,59.83
2018-12-01T13:44:41.478Z,59.73
2018-12-01T13:45:41.482Z,60.14
2018-12-01T13:46:41.466Z,59.35
2018-12-01T13:47:41.459Z,59.66
2018-12-01T13:48:41.428Z,59.66
2018-12-01T13:49:41.434Z,59.55
2018-12-01T13:50:41.406Z,59.55
2018-12-01T13:51:41.397Z,59.45
2018-12-01T13:52:41.402Z,59.66
2018-12-01T13:53:41.371Z,60.37
2018-12-01T13:54:41.361Z,60.19
2018-12-01T13:55:41.351Z,60.06
2018-12-01T13:56:41.340Z,60.60
2018-12-01T13:57:41.349Z,60.19
2018-12-01T13:58:41.350Z,60.19
2018-12-01T13:59:41.302Z,60.88
2018-12-01T14:00:41.303Z,60.78
2018-12-01T14:01:41.281Z,60.50
2018-12-01T14:02:41.295Z,60.47
2018-12-01T14:03:41.260Z,60.99
2018-12-01T14:04:41.247Z,61.11
2018-12-01T14:05:41.247Z,60.81
2018-12-01T14:06:41.226Z,61.19
2018-12-01T14:07:41.238Z,61.09
2018-12-01T14:08:41.208Z,61.43
2018-12-01T14:09:41.205Z,60.99
2018-12-01T14:10:41.179Z,61.52
2018-12-01T14:11:41.176Z,61.40
2018-12-01T14:12:41.179Z,61.40
2018-12-01T14:13:41.169Z,61.52
2018-12-01T14:14:41.135Z,61.73
2018-12-01T14:15:41.127Z,61.73
2018-12-01T14:16:41.147Z,61.63
2018-12-01T14:17:41.129Z,61.60
2018-12-01T14:18:41.104Z,61.83
2018-12-01T14:19:41.079Z,62.04
2018-12-01T14:20:41.069Z,62.04
2018-12-01T14:21:41.058Z,62.04
2018-12-01T14:22:41.072Z,62.35
2018-12-01T14:23:41.036Z,62.35
2018-12-01T14:24:41.025Z,62.24
2018-12-01T14:25:41.045Z,62.55
2018-12-01T14:26:41.046Z,62.76
2018-12-01T14:27:41.010Z,62.55
2018-12-01T14:28:41.062Z,62.85
2018-12-01T14:29:40.972Z,62.55
2018-12-01T14:30:41.930Z,62.76
2018-12-01T14:31:41.012Z,62.85
2018-12-01T14:32:40.954Z,63.17
2018-12-01T14:33:41.009Z,62.85
2018-12-01T14:34:40.910Z,63.17
2018-12-01T14:35:40.964Z,63.06
2018-12-01T14:36:40.909Z,63.06
2018-12-01T14:37:40.929Z,62.96
2018-12-01T14:38:40.914Z,62.96
2018-12-01T14:39:40.851Z,63.26
2018-12-01T14:40:40.848Z,63.26
2018-12-01T14:41:40.830Z,63.47
2018-12-01T14:42:40.838Z,63.20
2018-12-01T14:43:40.806Z,63.47
2018-12-01T14:44:40.799Z,63.26
2018-12-01T14:45:40.927Z,63.47
2018-12-01T14:46:40.772Z,63.98
2018-12-01T14:47:40.783Z,64.18
2018-12-01T14:48:40.752Z,64.18
2018-12-01T14:49:40.753Z,63.70
2018-12-01T14:50:40.767Z,64.18
2018-12-01T14:51:40.715Z,64.18
2018-12-01T14:52:40.725Z,63.98
2018-12-01T14:53:40.698Z,64.09
2018-12-01T14:54:40.683Z,64.39
2018-12-01T14:55:40.683Z,64.39
2018-12-01T14:56:40.660Z,64.12
2018-12-01T14:57:40.672Z,64.70
2018-12-01T14:58:42.484Z,64.39
2018-12-01T14:59:40.631Z,64.90
2018-12-01T15:00:40.618Z,64.73
2018-12-01T15:01:40.605Z,64.70
2018-12-01T15:02:40.612Z,64.62
2018-12-01T15:03:40.589Z,65.01
2018-12-01T15:04:40.574Z,64.70
2018-12-01T15:05:40.569Z,64.62
2018-12-01T15:06:40.567Z,64.53
2018-12-01T15:07:40.573Z,64.83
2018-12-01T15:08:40.556Z,64.62
2018-12-01T15:09:40.518Z,65.01
2018-12-01T15:10:40.509Z,64.70
2018-12-01T15:11:40.512Z,65.45
2018-12-01T15:12:40.522Z,65.11
2018-12-01T15:13:40.488Z,65.45
2018-12-01T15:14:40.463Z,65.75
2018-12-01T15:15:40.458Z,66.06
2018-12-01T15:16:40.446Z,66.27
2018-12-01T15:17:40.439Z,66.37
2018-12-01T15:18:40.454Z,66.57
2018-12-01T15:19:40.409Z,67.08
2018-12-01T15:20:40.408Z,66.78
2018-12-01T15:21:40.392Z,67.19
2018-12-01T15:22:40.414Z,67.60
2018-12-01T15:23:40.386Z,67.90
2018-12-01T15:24:40.433Z,67.49
2018-12-01T15:25:40.500Z,68.41
2018-12-01T15:26:40.392Z,68.76
2018-12-01T15:27:40.510Z,68.62
2018-12-01T15:28:40.526Z,68.86
2018-12-01T15:29:40.386Z,69.78
2018-12-01T15:30:40.339Z,69.98
2018-12-01T15:31:40.382Z,68.96
2018-12-01T15:32:40.268Z,69.89
2018-12-01T15:33:40.534Z,69.68
2018-12-01T15:34:40.928Z,69.81
2018-12-01T15:35:40.263Z,70.91
2018-12-01T15:36:40.263Z,70.81
2018-12-01T15:37:40.226Z,71.04
2018-12-01T15:38:40.277Z,70.84
2018-12-01T15:39:40.279Z,71.45
2018-12-01T15:40:40.241Z,71.86
2018-12-01T15:41:40.195Z,71.56
2018-12-01T15:42:40.203Z,72.38
2018-12-01T15:43:40.320Z,72.38
2018-12-01T15:44:40.144Z,72.48
2018-12-01T15:45:40.168Z,71.97
2018-12-01T15:46:40.161Z,72.07
2018-12-01T15:47:40.103Z,73.30
2018-12-01T15:48:40.109Z,73.30
2018-12-01T15:49:40.135Z,72.72
2018-12-01T15:50:40.090Z,73.02
2018-12-01T15:51:40.056Z,73.54
2018-12-01T15:52:40.099Z,73.85
2018-12-01T15:53:40.080Z,74.15
2018-12-01T15:54:40.077Z,74.36
2018-12-01T15:55:40.021Z,73.95
2018-12-01T15:56:40.035Z,74.46
2018-12-01T15:57:40.031Z,75.18
2018-12-01T15:58:40.005Z,75.32
2018-12-01T15:59:39.992Z,76.20
2018-12-01T16:00:39.980Z,76.00
2018-12-01T16:01:39.948Z,75.93
2018-12-01T16:02:39.933Z,76.14
2018-12-01T16:03:39.946Z,76.45
2018-12-01T16:04:39.914Z,76.55
2018-12-01T16:05:39.901Z,76.86
2018-12-01T16:06:39.890Z,77.17
2018-12-01T16:07:39.880Z,76.75
2018-12-01T16:08:39.893Z,76.86
2018-12-01T16:09:39.858Z,77.10
2018-12-01T16:10:39.849Z,77.00
2018-12-01T16:11:39.835Z,77.37
2018-12-01T16:12:39.824Z,77.00
2018-12-01T16:13:39.832Z,76.34
2018-12-01T16:14:39.817Z,77.30
2018-12-01T16:15:39.794Z,76.86
2018-12-01T16:16:39.800Z,76.58
2018-12-01T16:17:39.770Z,77.10
2018-12-01T16:18:39.782Z,77.40
2018-12-01T16:19:39.752Z,76.79
2018-12-01T16:20:39.745Z,77.00
2018-12-01T16:21:39.730Z,77.40
2018-12-01T16:22:39.734Z,77.30
2018-12-01T16:23:39.740Z,77.51
2018-12-01T16:24:39.705Z,77.40
2018-12-01T16:25:39.682Z,78.53
2018-12-01T16:26:39.674Z,77.81
2018-12-01T16:27:39.675Z,77.92
2018-12-01T16:28:39.662Z,78.12
2018-12-01T16:29:39.676Z,77.92
2018-12-01T16:30:39.630Z,78.02
2018-12-01T16:31:39.622Z,78.12
2018-12-01T16:32:39.619Z,78.02
2018-12-01T16:33:39.633Z,77.51
2018-12-01T16:34:39.609Z,77.40
2018-12-01T16:35:39.589Z,77.00
2018-12-01T16:36:39.631Z,77.61
2018-12-01T16:37:39.556Z,77.00
2018-12-01T16:38:39.588Z,76.68
2018-12-01T16:39:39.583Z,76.68
2018-12-01T16:40:39.521Z,77.30
2018-12-01T16:41:39.538Z,77.30
2018-12-01T16:42:39.505Z,77.30
2018-12-01T16:43:39.497Z,77.20
2018-12-01T16:44:39.499Z,77.00
2018-12-01T16:45:39.489Z,77.61
2018-12-01T16:46:39.456Z,78.33
2018-12-01T16:47:39.554Z,77.00
2018-12-01T16:48:39.443Z,77.00
2018-12-01T16:49:39.445Z,77.20
2018-12-01T16:50:39.411Z,77.30
2018-12-01T16:51:39.405Z,77.10
2018-12-01T16:52:39.421Z,77.40
2018-12-01T16:53:39.430Z,77.30
2018-12-01T16:54:39.390Z,77.61
2018-12-01T16:55:39.364Z,78.02
2018-12-01T16:56:39.346Z,78.33
2018-12-01T16:57:39.334Z,78.27
2018-12-01T16:58:39.334Z,78.23
2018-12-01T16:59:39.336Z,77.30
2018-12-01T17:00:39.309Z,77.23
2018-12-01T17:01:39.344Z,77.44
2018-12-01T17:02:39.296Z,77.51
2018-12-01T17:03:39.272Z,77.34
2018-12-01T17:04:39.309Z,78.27
2018-12-01T17:05:39.332Z,78.16
2018-12-01T17:06:39.267Z,77.75
2018-12-01T17:07:39.243Z,77.55
2018-12-01T17:08:39.217Z,77.55
2018-12-01T17:09:39.230Z,78.06
2018-12-01T17:10:39.232Z,78.36
2018-12-01T17:11:39.224Z,77.34
2018-12-01T17:12:39.172Z,78.36
2018-12-01T17:13:39.162Z,77.55
2018-12-01T17:14:39.184Z,77.55
2018-12-01T17:15:39.190Z,77.85
2018-12-01T17:16:39.129Z,78.36
2018-12-01T17:17:39.117Z,77.75
2018-12-01T17:18:39.123Z,78.36
2018-12-01T17:19:39.219Z,78.06
2018-12-01T17:20:39.088Z,78.12
2018-12-01T17:21:39.075Z,78.47
2018-12-01T17:22:39.092Z,77.95
2018-12-01T17:23:39.074Z,78.36
2018-12-01T17:24:40.097Z,78.36
2018-12-01T17:25:39.085Z,78.06
2018-12-01T17:26:39.069Z,78.16
2018-12-01T17:27:39.008Z,78.36
2018-12-01T17:28:39.015Z,78.27
2018-12-01T17:29:39.102Z,78.16
2018-12-01T17:30:38.983Z,78.16
2018-12-01T17:31:39.013Z,77.95
2018-12-01T17:32:38.957Z,78.36
2018-12-01T17:33:38.943Z,78.27
2018-12-01T17:34:38.954Z,78.06
2018-12-01T17:35:38.923Z,78.06
2018-12-01T17:36:38.914Z,77.95
2018-12-01T17:37:38.903Z,78.36
2018-12-01T17:38:38.895Z,78.16
2018-12-01T17:39:38.920Z,78.57
2018-12-01T17:40:38.877Z,78.78
2018-12-01T17:41:38.857Z,78.67
2018-12-01T17:42:38.850Z,78.78
2018-12-01T17:43:38.838Z,78.98
2018-12-01T17:44:38.913Z,79.08
2018-12-01T17:45:38.819Z,79.60
2018-12-01T17:46:38.905Z,79.39
2018-12-01T17:47:38.796Z,79.49
2018-12-01T17:48:38.794Z,79.80
2018-12-01T17:49:38.963Z,79.46
2018-12-01T17:50:38.764Z,80.21
2018-12-01T17:51:38.753Z,80.35
2018-12-01T17:52:38.739Z,80.32
2018-12-01T17:53:38.733Z,81.18
2018-12-01T17:54:38.748Z,80.56
2018-12-01T17:55:38.710Z,80.97
2018-12-01T17:56:38.700Z,80.56
2018-12-01T17:57:38.712Z,81.59
2018-12-01T17:58:38.680Z,81.28
2018-12-01T17:59:38.661Z,81.62
2018-12-01T18:00:38.692Z,81.52
2018-12-01T18:01:38.642Z,82.14
2018-12-01T18:02:38.692Z,82.04
2018-12-01T18:03:38.625Z,81.83
2018-12-01T18:04:38.612Z,82.45
2018-12-01T18:05:38.617Z,82.34
2018-12-01T18:06:38.629Z,82.04
2018-12-01T18:07:38.578Z,81.73
2018-12-01T18:08:38.571Z,82.04
2018-12-01T18:09:38.564Z,81.38
2018-12-01T18:10:38.583Z,81.73
2018-12-01T18:11:38.531Z,81.93
2018-12-01T18:12:38.519Z,81.93
2018-12-01T18:13:38.510Z,81.62
2018-12-01T18:14:38.563Z,81.52
2018-12-01T18:15:38.551Z,81.62
2018-12-01T18:16:38.480Z,80.91
2018-12-01T18:17:38.467Z,81.32
2018-12-01T18:18:38.455Z,81.42
2018-12-01T18:19:38.452Z,81.32
2018-12-01T18:20:38.456Z,81.21
2018-12-01T18:21:38.437Z,81.11
2018-12-01T18:22:38.411Z,81.32
2018-12-01T18:23:38.413Z,81.32
2018-12-01T18:24:38.390Z,81.32
2018-12-01T18:25:38.474Z,81.42
2018-12-01T18:26:38.371Z,81.21
2018-12-01T18:27:38.365Z,81.21
2018-12-01T18:28:38.349Z,81.32
2018-12-01T18:29:38.342Z,80.80
2018-12-01T18:30:38.367Z,80.80
2018-12-01T18:31:38.320Z,80.60
2018-12-01T18:32:38.307Z,80.87
2018-12-01T18:33:38.332Z,80.56
2018-12-01T18:34:38.281Z,80.80
2018-12-01T18:35:38.290Z,80.91
2018-12-01T18:36:38.267Z,80.60
2018-12-01T18:37:38.250Z,80.25
2018-12-01T18:38:38.240Z,80.08
2018-12-01T18:39:38.240Z,80.29
2018-12-01T18:40:38.245Z,80.05
2018-12-01T18:41:38.213Z,80.29
2018-12-01T18:42:38.195Z,79.74
2018-12-01T18:43:38.191Z,79.98
2018-12-01T18:44:38.175Z,80.39
2018-12-01T18:45:38.184Z,80.19
2018-12-01T18:46:38.151Z,79.57
2018-12-01T18:47:38.174Z,79.94
2018-12-01T18:48:38.130Z,79.63
2018-12-01T18:49:38.120Z,80.05
2018-12-01T18:50:38.131Z,80.19
2018-12-01T18:51:38.119Z,80.87
2018-12-01T18:52:38.090Z,80.87
2018-12-01T18:53:38.081Z,80.80